sensor_id;sensor_type;location;lat;lon;timestamp;P1;durP1;ratioP1;P2;durP2;ratioP2
41623;SDS011;27319;50.306;18.926;2023-04-16T00:01:36;34.53;;;23.35;;
41623;SDS011;27319;50.306;18.926;2023-04-16T00:05:37;36.28;;;24.02;;
41623;SDS011;27319;50.306;18.926;2023-04-16T00:09:38;42.28;;;28.17;;
41623;SDS011;27319;50.306;18.926;2023-04-16T00:13:42;41.15;;;27.67;;
41623;SDS011;27319;50.306;18.926;2023-04-16T00:17:43;42.33;;;26.63;;
41623;SDS011;27319;50.306;18.926;2023-04-16T00:21:44;40.13;;;26.73;;
41623;SDS011;27319;50.306;18.926;2023-04-16T00:25:44;39.50;;;25.98;;
41623;SDS011;27319;50.306;18.926;2023-04-16T00:29:45;33.53;;;22.45;;
41623;SDS011;27319;50.306;18.926;2023-04-16T00:33:46;34.15;;;20.10;;
41623;SDS011;27319;50.306;18.926;2023-04-16T00:37:47;33.67;;;20.67;;
41623;SDS011;27319;50.306;18.926;2023-04-16T00:41:47;33.47;;;20.95;;
41623;SDS011;27319;50.306;18.926;2023-04-16T00:45:48;31.27;;;19.42;;
41623;SDS011;27319;50.306;18.926;2023-04-16T00:49:49;32.50;;;19.83;;
41623;SDS011;27319;50.306;18.926;2023-04-16T00:53:50;28.85;;;18.63;;
41623;SDS011;27319;50.306;18.926;2023-04-16T00:57:51;29.33;;;19.25;;
41623;SDS011;27319;50.306;18.926;2023-04-16T01:01:52;29.48;;;17.50;;
41623;SDS011;27319;50.306;18.926;2023-04-16T01:04:53;28.17;;;18.35;;
41623;SDS011;27319;50.306;18.926;2023-04-16T01:07:57;32.05;;;19.70;;
41623;SDS011;27319;50.306;18.926;2023-04-16T01:11:00;29.88;;;19.48;;
41623;SDS011;27319;50.306;18.926;2023-04-16T01:15:01;30.58;;;18.95;;
41623;SDS011;27319;50.306;18.926;2023-04-16T01:19:01;35.53;;;19.63;;
41623;SDS011;27319;50.306;18.926;2023-04-16T01:23:02;26.88;;;17.95;;
41623;SDS011;27319;50.306;18.926;2023-04-16T01:27:03;31.63;;;16.38;;
41623;SDS011;27319;50.306;18.926;2023-04-16T01:31:04;37.22;;;19.73;;
41623;SDS011;27319;50.306;18.926;2023-04-16T01:35:05;36.58;;;20.73;;
41623;SDS011;27319;50.306;18.926;2023-04-16T01:39:06;31.95;;;19.20;;
41623;SDS011;27319;50.306;18.926;2023-04-16T01:43:07;25.70;;;17.38;;
41623;SDS011;27319;50.306;18.926;2023-04-16T01:47:07;30.90;;;15.48;;
41623;SDS011;27319;50.306;18.926;2023-04-16T01:51:08;21.77;;;14.48;;
41623;SDS011;27319;50.306;18.926;2023-04-16T01:55:09;20.48;;;13.40;;
41623;SDS011;27319;50.306;18.926;2023-04-16T01:59:10;18.55;;;12.85;;
41623;SDS011;27319;50.306;18.926;2023-04-16T02:03:11;19.70;;;12.93;;
41623;SDS011;27319;50.306;18.926;2023-04-16T02:06:11;22.63;;;13.93;;
41623;SDS011;27319;50.306;18.926;2023-04-16T02:09:12;19.63;;;14.20;;
41623;SDS011;27319;50.306;18.926;2023-04-16T02:13:14;22.02;;;14.45;;
41623;SDS011;27319;50.306;18.926;2023-04-16T02:17:14;24.58;;;16.48;;
41623;SDS011;27319;50.306;18.926;2023-04-16T02:21:15;40.05;;;22.58;;
41623;SDS011;27319;50.306;18.926;2023-04-16T02:25:16;37.40;;;21.88;;
41623;SDS011;27319;50.306;18.926;2023-04-16T02:29:19;67.00;;;32.53;;
41623;SDS011;27319;50.306;18.926;2023-04-16T02:33:20;51.72;;;28.00;;
41623;SDS011;27319;50.306;18.926;2023-04-16T02:37:21;52.88;;;29.25;;
41623;SDS011;27319;50.306;18.926;2023-04-16T02:41:22;48.85;;;27.65;;
41623;SDS011;27319;50.306;18.926;2023-04-16T02:45:22;45.25;;;26.92;;
41623;SDS011;27319;50.306;18.926;2023-04-16T02:49:23;46.53;;;25.80;;
41623;SDS011;27319;50.306;18.926;2023-04-16T02:53:24;42.58;;;25.05;;
41623;SDS011;27319;50.306;18.926;2023-04-16T02:57:25;50.90;;;28.40;;
41623;SDS011;27319;50.306;18.926;2023-04-16T03:01:26;43.05;;;25.38;;
41623;SDS011;27319;50.306;18.926;2023-04-16T03:05:26;48.15;;;26.90;;
41623;SDS011;27319;50.306;18.926;2023-04-16T03:09:27;47.20;;;24.40;;
41623;SDS011;27319;50.306;18.926;2023-04-16T03:13:28;49.20;;;26.38;;
41623;SDS011;27319;50.306;18.926;2023-04-16T03:17:29;40.40;;;22.50;;
41623;SDS011;27319;50.306;18.926;2023-04-16T03:21:30;47.42;;;24.77;;
41623;SDS011;27319;50.306;18.926;2023-04-16T03:25:31;48.50;;;25.77;;
41623;SDS011;27319;50.306;18.926;2023-04-16T03:29:31;41.80;;;24.20;;
41623;SDS011;27319;50.306;18.926;2023-04-16T03:33:32;40.45;;;24.48;;
41623;SDS011;27319;50.306;18.926;2023-04-16T03:37:33;42.15;;;21.80;;
41623;SDS011;27319;50.306;18.926;2023-04-16T03:41:34;50.25;;;24.17;;
41623;SDS011;27319;50.306;18.926;2023-04-16T03:45:35;43.83;;;23.75;;
41623;SDS011;27319;50.306;18.926;2023-04-16T03:49:35;33.33;;;22.38;;
41623;SDS011;27319;50.306;18.926;2023-04-16T03:53:36;40.22;;;23.38;;
41623;SDS011;27319;50.306;18.926;2023-04-16T03:57:37;47.50;;;26.20;;
41623;SDS011;27319;50.306;18.926;2023-04-16T04:01:38;51.45;;;28.30;;
41623;SDS011;27319;50.306;18.926;2023-04-16T04:05:39;48.67;;;26.17;;
41623;SDS011;27319;50.306;18.926;2023-04-16T04:09:40;51.10;;;27.92;;
41623;SDS011;27319;50.306;18.926;2023-04-16T04:13:40;54.08;;;28.73;;
41623;SDS011;27319;50.306;18.926;2023-04-16T04:17:41;57.83;;;32.58;;
41623;SDS011;27319;50.306;18.926;2023-04-16T04:21:42;47.97;;;25.88;;
41623;SDS011;27319;50.306;18.926;2023-04-16T04:25:43;48.50;;;27.88;;
41623;SDS011;27319;50.306;18.926;2023-04-16T04:29:44;50.88;;;27.02;;
41623;SDS011;27319;50.306;18.926;2023-04-16T04:32:44;53.70;;;28.77;;
41623;SDS011;27319;50.306;18.926;2023-04-16T04:35:45;48.38;;;25.35;;
41623;SDS011;27319;50.306;18.926;2023-04-16T04:38:46;45.20;;;25.10;;
41623;SDS011;27319;50.306;18.926;2023-04-16T04:41:47;48.33;;;25.65;;
41623;SDS011;27319;50.306;18.926;2023-04-16T04:44:48;46.75;;;25.25;;
41623;SDS011;27319;50.306;18.926;2023-04-16T04:48:49;42.10;;;23.63;;
41623;SDS011;27319;50.306;18.926;2023-04-16T04:52:50;40.28;;;22.27;;
41623;SDS011;27319;50.306;18.926;2023-04-16T04:56:51;35.42;;;20.73;;
41623;SDS011;27319;50.306;18.926;2023-04-16T05:00:52;48.92;;;22.30;;
41623;SDS011;27319;50.306;18.926;2023-04-16T05:03:52;29.23;;;18.10;;
41623;SDS011;27319;50.306;18.926;2023-04-16T05:06:53;36.53;;;19.80;;
41623;SDS011;27319;50.306;18.926;2023-04-16T05:09:54;44.28;;;23.42;;
41623;SDS011;27319;50.306;18.926;2023-04-16T05:12:56;37.58;;;21.35;;
41623;SDS011;27319;50.306;18.926;2023-04-16T05:16:56;45.90;;;22.00;;
41623;SDS011;27319;50.306;18.926;2023-04-16T05:20:57;34.20;;;19.33;;
41623;SDS011;27319;50.306;18.926;2023-04-16T05:24:58;32.38;;;18.58;;
41623;SDS011;27319;50.306;18.926;2023-04-16T05:28:59;43.35;;;23.30;;
41623;SDS011;27319;50.306;18.926;2023-04-16T05:33:00;41.88;;;24.25;;
41623;SDS011;27319;50.306;18.926;2023-04-16T05:37:00;53.42;;;26.00;;
41623;SDS011;27319;50.306;18.926;2023-04-16T05:41:01;67.43;;;32.60;;
41623;SDS011;27319;50.306;18.926;2023-04-16T05:45:02;60.08;;;30.13;;
41623;SDS011;27319;50.306;18.926;2023-04-16T05:49:03;61.35;;;30.77;;
41623;SDS011;27319;50.306;18.926;2023-04-16T05:53:06;57.92;;;30.75;;
41623;SDS011;27319;50.306;18.926;2023-04-16T05:57:05;52.60;;;29.33;;
41623;SDS011;27319;50.306;18.926;2023-04-16T06:01:05;48.60;;;28.33;;
41623;SDS011;27319;50.306;18.926;2023-04-16T06:05:06;43.75;;;25.58;;
41623;SDS011;27319;50.306;18.926;2023-04-16T06:09:07;44.40;;;26.55;;
41623;SDS011;27319;50.306;18.926;2023-04-16T06:13:08;48.45;;;27.73;;
41623;SDS011;27319;50.306;18.926;2023-04-16T06:17:09;34.80;;;24.50;;
41623;SDS011;27319;50.306;18.926;2023-04-16T06:21:10;36.03;;;23.40;;
41623;SDS011;27319;50.306;18.926;2023-04-16T06:25:10;31.80;;;22.73;;
41623;SDS011;27319;50.306;18.926;2023-04-16T06:29:11;31.25;;;23.20;;
41623;SDS011;27319;50.306;18.926;2023-04-16T06:33:12;42.40;;;25.63;;
41623;SDS011;27319;50.306;18.926;2023-04-16T06:37:13;39.95;;;24.77;;
41623;SDS011;27319;50.306;18.926;2023-04-16T06:41:14;46.47;;;25.50;;
41623;SDS011;27319;50.306;18.926;2023-04-16T06:45:14;36.78;;;23.13;;
41623;SDS011;27319;50.306;18.926;2023-04-16T06:49:15;31.88;;;20.20;;
41623;SDS011;27319;50.306;18.926;2023-04-16T06:53:16;28.85;;;19.27;;
41623;SDS011;27319;50.306;18.926;2023-04-16T06:57:17;30.90;;;18.75;;
41623;SDS011;27319;50.306;18.926;2023-04-16T07:01:18;30.58;;;20.80;;
41623;SDS011;27319;50.306;18.926;2023-04-16T07:05:19;33.58;;;23.20;;
41623;SDS011;27319;50.306;18.926;2023-04-16T07:08:19;37.05;;;23.58;;
41623;SDS011;27319;50.306;18.926;2023-04-16T07:11:20;35.03;;;24.38;;
41623;SDS011;27319;50.306;18.926;2023-04-16T07:14:21;34.03;;;23.73;;
41623;SDS011;27319;50.306;18.926;2023-04-16T07:17:22;40.58;;;27.95;;
41623;SDS011;27319;50.306;18.926;2023-04-16T07:20:23;44.58;;;27.23;;
41623;SDS011;27319;50.306;18.926;2023-04-16T07:23:25;43.15;;;27.77;;
41623;SDS011;27319;50.306;18.926;2023-04-16T07:26:25;39.75;;;27.35;;
41623;SDS011;27319;50.306;18.926;2023-04-16T07:30:26;32.88;;;23.48;;
41623;SDS011;27319;50.306;18.926;2023-04-16T07:34:27;24.20;;;19.35;;
41623;SDS011;27319;50.306;18.926;2023-04-16T07:38:28;28.77;;;22.52;;
41623;SDS011;27319;50.306;18.926;2023-04-16T07:42:29;27.08;;;19.83;;
41623;SDS011;27319;50.306;18.926;2023-04-16T07:46:30;22.42;;;16.95;;
41623;SDS011;27319;50.306;18.926;2023-04-16T07:50:30;21.67;;;16.65;;
41623;SDS011;27319;50.306;18.926;2023-04-16T07:54:31;20.55;;;15.07;;
41623;SDS011;27319;50.306;18.926;2023-04-16T07:58:32;17.92;;;13.55;;
41623;SDS011;27319;50.306;18.926;2023-04-16T08:02:33;15.23;;;12.65;;
41623;SDS011;27319;50.306;18.926;2023-04-16T08:05:34;15.50;;;11.98;;
41623;SDS011;27319;50.306;18.926;2023-04-16T08:08:35;14.98;;;11.68;;
41623;SDS011;27319;50.306;18.926;2023-04-16T08:11:35;16.08;;;10.48;;
41623;SDS011;27319;50.306;18.926;2023-04-16T08:14:36;15.68;;;11.73;;
41623;SDS011;27319;50.306;18.926;2023-04-16T08:17:37;12.30;;;9.90;;
41623;SDS011;27319;50.306;18.926;2023-04-16T08:20:39;13.50;;;10.10;;
41623;SDS011;27319;50.306;18.926;2023-04-16T08:23:40;13.00;;;10.75;;
41623;SDS011;27319;50.306;18.926;2023-04-16T08:26:41;11.40;;;9.00;;
41623;SDS011;27319;50.306;18.926;2023-04-16T08:29:41;14.07;;;10.00;;
41623;SDS011;27319;50.306;18.926;2023-04-16T08:32:42;12.00;;;10.15;;
41623;SDS011;27319;50.306;18.926;2023-04-16T08:35:43;12.00;;;8.68;;
41623;SDS011;27319;50.306;18.926;2023-04-16T08:38:44;11.07;;;8.68;;
41623;SDS011;27319;50.306;18.926;2023-04-16T08:41:46;13.23;;;9.15;;
41623;SDS011;27319;50.306;18.926;2023-04-16T08:44:47;13.95;;;8.95;;
41623;SDS011;27319;50.306;18.926;2023-04-16T08:47:52;11.90;;;9.07;;
41623;SDS011;27319;50.306;18.926;2023-04-16T08:50:53;12.70;;;8.27;;
41623;SDS011;27319;50.306;18.926;2023-04-16T08:53:59;12.80;;;9.00;;
41623;SDS011;27319;50.306;18.926;2023-04-16T08:57:05;15.02;;;8.25;;
41623;SDS011;27319;50.306;18.926;2023-04-16T09:00:09;10.13;;;7.40;;
41623;SDS011;27319;50.306;18.926;2023-04-16T09:03:11;12.52;;;8.13;;
41623;SDS011;27319;50.306;18.926;2023-04-16T09:06:13;11.35;;;7.85;;
41623;SDS011;27319;50.306;18.926;2023-04-16T09:09:15;11.13;;;7.63;;
41623;SDS011;27319;50.306;18.926;2023-04-16T09:12:17;8.30;;;6.50;;
41623;SDS011;27319;50.306;18.926;2023-04-16T09:16:18;8.43;;;6.43;;
41623;SDS011;27319;50.306;18.926;2023-04-16T09:20:19;10.10;;;6.47;;
41623;SDS011;27319;50.306;18.926;2023-04-16T09:24:20;8.68;;;6.65;;
41623;SDS011;27319;50.306;18.926;2023-04-16T09:28:39;10.40;;;7.68;;
41623;SDS011;27319;50.306;18.926;2023-04-16T09:32:37;10.35;;;7.35;;
41623;SDS011;27319;50.306;18.926;2023-04-16T09:36:52;10.70;;;7.28;;
41623;SDS011;27319;50.306;18.926;2023-04-16T09:41:06;8.82;;;6.63;;
41623;SDS011;27319;50.306;18.926;2023-04-16T09:45:06;9.15;;;6.65;;
41623;SDS011;27319;50.306;18.926;2023-04-16T09:49:13;10.73;;;7.97;;
41623;SDS011;27319;50.306;18.926;2023-04-16T09:53:14;9.43;;;6.88;;
41623;SDS011;27319;50.306;18.926;2023-04-16T09:57:21;7.78;;;6.43;;
41623;SDS011;27319;50.306;18.926;2023-04-16T10:01:21;9.18;;;6.20;;
41623;SDS011;27319;50.306;18.926;2023-04-16T10:05:06;7.53;;;6.05;;
41623;SDS011;27319;50.306;18.926;2023-04-16T10:09:07;11.30;;;6.88;;
41623;SDS011;27319;50.306;18.926;2023-04-16T10:13:08;8.07;;;5.97;;
41623;SDS011;27319;50.306;18.926;2023-04-16T10:17:09;9.15;;;6.43;;
41623;SDS011;27319;50.306;18.926;2023-04-16T10:21:09;9.52;;;7.63;;
41623;SDS011;27319;50.306;18.926;2023-04-16T10:25:10;6.22;;;5.18;;
41623;SDS011;27319;50.306;18.926;2023-04-16T10:29:11;8.30;;;5.30;;
41623;SDS011;27319;50.306;18.926;2023-04-16T10:33:11;7.13;;;5.00;;
41623;SDS011;27319;50.306;18.926;2023-04-16T10:37:13;5.85;;;3.90;;
41623;SDS011;27319;50.306;18.926;2023-04-16T10:41:13;6.20;;;4.07;;
41623;SDS011;27319;50.306;18.926;2023-04-16T10:44:18;5.90;;;4.65;;
41623;SDS011;27319;50.306;18.926;2023-04-16T10:47:19;5.57;;;4.88;;
41623;SDS011;27319;50.306;18.926;2023-04-16T10:50:24;6.93;;;5.78;;
41623;SDS011;27319;50.306;18.926;2023-04-16T10:53:33;7.50;;;5.05;;
41623;SDS011;27319;50.306;18.926;2023-04-16T10:56:36;7.05;;;5.53;;
41623;SDS011;27319;50.306;18.926;2023-04-16T10:59:37;9.75;;;7.38;;
41623;SDS011;27319;50.306;18.926;2023-04-16T11:03:15;8.77;;;5.90;;
41623;SDS011;27319;50.306;18.926;2023-04-16T11:06:23;9.15;;;5.65;;
41623;SDS011;27319;50.306;18.926;2023-04-16T11:13:37;11.07;;;6.53;;
41623;SDS011;27319;50.306;18.926;2023-04-16T11:20:45;7.35;;;5.53;;
41623;SDS011;27319;50.306;18.926;2023-04-16T11:23:50;9.27;;;4.90;;
41623;SDS011;27319;50.306;18.926;2023-04-16T11:27:49;6.93;;;4.93;;
41623;SDS011;27319;50.306;18.926;2023-04-16T11:31:50;7.88;;;5.93;;
41623;SDS011;27319;50.306;18.926;2023-04-16T11:35:57;8.88;;;5.47;;
41623;SDS011;27319;50.306;18.926;2023-04-16T11:39:01;9.27;;;7.65;;
41623;SDS011;27319;50.306;18.926;2023-04-16T11:42:03;10.43;;;8.25;;
41623;SDS011;27319;50.306;18.926;2023-04-16T11:45:04;9.82;;;7.18;;
41623;SDS011;27319;50.306;18.926;2023-04-16T11:49:05;9.70;;;6.82;;
41623;SDS011;27319;50.306;18.926;2023-04-16T11:53:08;7.90;;;7.10;;
41623;SDS011;27319;50.306;18.926;2023-04-16T11:57:09;6.57;;;5.45;;
41623;SDS011;27319;50.306;18.926;2023-04-16T12:01:10;25.80;;;7.57;;
41623;SDS011;27319;50.306;18.926;2023-04-16T12:09:23;10.90;;;7.72;;
41623;SDS011;27319;50.306;18.926;2023-04-16T12:13:23;9.52;;;7.47;;
41623;SDS011;27319;50.306;18.926;2023-04-16T12:17:24;12.05;;;7.47;;
41623;SDS011;27319;50.306;18.926;2023-04-16T12:21:25;9.90;;;7.55;;
41623;SDS011;27319;50.306;18.926;2023-04-16T12:25:26;9.52;;;7.20;;
41623;SDS011;27319;50.306;18.926;2023-04-16T12:29:26;17.58;;;9.68;;
41623;SDS011;27319;50.306;18.926;2023-04-16T12:33:27;28.45;;;19.95;;
41623;SDS011;27319;50.306;18.926;2023-04-16T12:37:27;20.90;;;14.25;;
41623;SDS011;27319;50.306;18.926;2023-04-16T12:41:28;29.45;;;17.98;;
41623;SDS011;27319;50.306;18.926;2023-04-16T12:45:29;10.82;;;7.65;;
41623;SDS011;27319;50.306;18.926;2023-04-16T12:49:30;9.07;;;6.32;;
41623;SDS011;27319;50.306;18.926;2023-04-16T12:53:30;8.07;;;6.20;;
41623;SDS011;27319;50.306;18.926;2023-04-16T12:57:31;9.70;;;5.82;;
41623;SDS011;27319;50.306;18.926;2023-04-16T13:01:32;7.60;;;5.72;;
41623;SDS011;27319;50.306;18.926;2023-04-16T13:05:33;7.43;;;4.70;;
41623;SDS011;27319;50.306;18.926;2023-04-16T13:09:34;34.42;;;6.18;;
41623;SDS011;27319;50.306;18.926;2023-04-16T13:12:35;6.50;;;4.55;;
41623;SDS011;27319;50.306;18.926;2023-04-16T13:15:36;8.20;;;5.35;;
41623;SDS011;27319;50.306;18.926;2023-04-16T13:18:37;13.82;;;5.22;;
41623;SDS011;27319;50.306;18.926;2023-04-16T13:21:39;8.98;;;4.70;;
41623;SDS011;27319;50.306;18.926;2023-04-16T13:24:41;5.43;;;4.85;;
41623;SDS011;27319;50.306;18.926;2023-04-16T13:27:42;7.20;;;5.20;;
41623;SDS011;27319;50.306;18.926;2023-04-16T13:31:43;6.40;;;4.45;;
41623;SDS011;27319;50.306;18.926;2023-04-16T13:35:44;7.95;;;5.10;;
41623;SDS011;27319;50.306;18.926;2023-04-16T13:39:45;6.70;;;5.03;;
41623;SDS011;27319;50.306;18.926;2023-04-16T13:43:46;6.57;;;5.18;;
41623;SDS011;27319;50.306;18.926;2023-04-16T13:47:47;7.32;;;5.60;;
41623;SDS011;27319;50.306;18.926;2023-04-16T13:51:47;8.57;;;6.03;;
41623;SDS011;27319;50.306;18.926;2023-04-16T13:55:48;17.35;;;7.15;;
41623;SDS011;27319;50.306;18.926;2023-04-16T13:59:49;7.30;;;5.95;;
41623;SDS011;27319;50.306;18.926;2023-04-16T14:02:50;8.10;;;5.85;;
41623;SDS011;27319;50.306;18.926;2023-04-16T14:05:52;7.53;;;5.95;;
41623;SDS011;27319;50.306;18.926;2023-04-16T14:08:52;12.02;;;6.28;;
41623;SDS011;27319;50.306;18.926;2023-04-16T14:12:53;11.07;;;7.70;;
41623;SDS011;27319;50.306;18.926;2023-04-16T14:16:54;8.90;;;6.10;;
41623;SDS011;27319;50.306;18.926;2023-04-16T14:20:55;12.73;;;10.90;;
41623;SDS011;27319;50.306;18.926;2023-04-16T14:24:31;14.30;;;8.63;;
41623;SDS011;27319;50.306;18.926;2023-04-16T14:28:32;9.13;;;6.72;;
41623;SDS011;27319;50.306;18.926;2023-04-16T14:32:33;14.15;;;8.52;;
41623;SDS011;27319;50.306;18.926;2023-04-16T14:36:35;24.95;;;15.38;;
41623;SDS011;27319;50.306;18.926;2023-04-16T14:40:35;10.27;;;6.78;;
41623;SDS011;27319;50.306;18.926;2023-04-16T14:44:35;13.02;;;7.78;;
41623;SDS011;27319;50.306;18.926;2023-04-16T14:48:36;11.20;;;7.15;;
41623;SDS011;27319;50.306;18.926;2023-04-16T14:52:37;12.73;;;7.03;;
41623;SDS011;27319;50.306;18.926;2023-04-16T14:55:53;13.18;;;7.45;;
41623;SDS011;27319;50.306;18.926;2023-04-16T14:59:54;14.07;;;8.50;;
41623;SDS011;27319;50.306;18.926;2023-04-16T15:03:18;17.48;;;12.57;;
41623;SDS011;27319;50.306;18.926;2023-04-16T15:06:19;11.68;;;8.18;;
41623;SDS011;27319;50.306;18.926;2023-04-16T15:09:19;11.10;;;8.20;;
41623;SDS011;27319;50.306;18.926;2023-04-16T15:12:20;16.05;;;11.27;;
41623;SDS011;27319;50.306;18.926;2023-04-16T15:16:21;14.77;;;9.43;;
41623;SDS011;27319;50.306;18.926;2023-04-16T15:20:22;14.05;;;8.75;;
41623;SDS011;27319;50.306;18.926;2023-04-16T15:24:23;11.57;;;7.60;;
41623;SDS011;27319;50.306;18.926;2023-04-16T15:28:24;14.38;;;10.57;;
41623;SDS011;27319;50.306;18.926;2023-04-16T15:32:25;12.20;;;8.15;;
41623;SDS011;27319;50.306;18.926;2023-04-16T15:36:25;11.02;;;7.60;;
41623;SDS011;27319;50.306;18.926;2023-04-16T15:40:26;19.60;;;15.25;;
41623;SDS011;27319;50.306;18.926;2023-04-16T15:44:28;11.05;;;7.75;;
41623;SDS011;27319;50.306;18.926;2023-04-16T15:48:28;10.98;;;7.35;;
41623;SDS011;27319;50.306;18.926;2023-04-16T15:52:29;9.95;;;7.53;;
41623;SDS011;27319;50.306;18.926;2023-04-16T15:56:30;21.30;;;14.85;;
41623;SDS011;27319;50.306;18.926;2023-04-16T16:00:30;29.92;;;19.15;;
41623;SDS011;27319;50.306;18.926;2023-04-16T16:03:51;9.45;;;7.63;;
41623;SDS011;27319;50.306;18.926;2023-04-16T16:07:52;11.10;;;8.45;;
41623;SDS011;27319;50.306;18.926;2023-04-16T16:11:54;18.00;;;10.98;;
41623;SDS011;27319;50.306;18.926;2023-04-16T16:15:54;14.02;;;10.98;;
41623;SDS011;27319;50.306;18.926;2023-04-16T16:19:54;9.30;;;7.07;;
41623;SDS011;27319;50.306;18.926;2023-04-16T16:23:55;10.77;;;6.90;;
41623;SDS011;27319;50.306;18.926;2023-04-16T16:27:56;9.32;;;6.97;;
41623;SDS011;27319;50.306;18.926;2023-04-16T16:31:12;10.48;;;6.85;;
41623;SDS011;27319;50.306;18.926;2023-04-16T16:34:13;10.52;;;8.05;;
41623;SDS011;27319;50.306;18.926;2023-04-16T16:37:14;8.93;;;7.28;;
41623;SDS011;27319;50.306;18.926;2023-04-16T16:40:18;9.77;;;8.38;;
41623;SDS011;27319;50.306;18.926;2023-04-16T16:43:18;13.32;;;10.20;;
41623;SDS011;27319;50.306;18.926;2023-04-16T16:46:20;14.73;;;10.13;;
41623;SDS011;27319;50.306;18.926;2023-04-16T16:49:20;23.40;;;15.25;;
41623;SDS011;27319;50.306;18.926;2023-04-16T16:52:22;19.48;;;14.40;;
41623;SDS011;27319;50.306;18.926;2023-04-16T16:55:23;14.77;;;10.00;;
41623;SDS011;27319;50.306;18.926;2023-04-16T16:58:24;11.82;;;7.80;;
41623;SDS011;27319;50.306;18.926;2023-04-16T17:01:25;13.93;;;8.48;;
41623;SDS011;27319;50.306;18.926;2023-04-16T17:04:26;18.35;;;8.23;;
41623;SDS011;27319;50.306;18.926;2023-04-16T17:07:27;11.10;;;8.43;;
41623;SDS011;27319;50.306;18.926;2023-04-16T17:10:28;12.48;;;8.38;;
41623;SDS011;27319;50.306;18.926;2023-04-16T17:13:29;16.30;;;8.57;;
41623;SDS011;27319;50.306;18.926;2023-04-16T17:16:32;17.42;;;9.10;;
41623;SDS011;27319;50.306;18.926;2023-04-16T17:19:32;10.43;;;7.75;;
41623;SDS011;27319;50.306;18.926;2023-04-16T17:22:34;21.15;;;14.55;;
41623;SDS011;27319;50.306;18.926;2023-04-16T17:25:35;18.67;;;13.18;;
41623;SDS011;27319;50.306;18.926;2023-04-16T17:28:36;17.02;;;10.73;;
41623;SDS011;27319;50.306;18.926;2023-04-16T17:32:37;18.17;;;13.23;;
41623;SDS011;27319;50.306;18.926;2023-04-16T17:36:37;18.20;;;11.88;;
41623;SDS011;27319;50.306;18.926;2023-04-16T17:40:38;22.13;;;12.50;;
41623;SDS011;27319;50.306;18.926;2023-04-16T17:44:40;19.45;;;12.60;;
41623;SDS011;27319;50.306;18.926;2023-04-16T17:48:41;19.83;;;13.10;;
41623;SDS011;27319;50.306;18.926;2023-04-16T17:52:42;15.02;;;11.02;;
41623;SDS011;27319;50.306;18.926;2023-04-16T17:56:42;16.90;;;12.45;;
41623;SDS011;27319;50.306;18.926;2023-04-16T18:00:43;29.00;;;18.25;;
41623;SDS011;27319;50.306;18.926;2023-04-16T18:03:45;46.85;;;27.27;;
41623;SDS011;27319;50.306;18.926;2023-04-16T18:06:46;45.95;;;27.20;;
41623;SDS011;27319;50.306;18.926;2023-04-16T18:09:46;45.78;;;26.80;;
41623;SDS011;27319;50.306;18.926;2023-04-16T18:13:47;36.00;;;23.83;;
41623;SDS011;27319;50.306;18.926;2023-04-16T18:17:48;29.55;;;19.73;;
41623;SDS011;27319;50.306;18.926;2023-04-16T18:21:49;24.27;;;15.73;;
41623;SDS011;27319;50.306;18.926;2023-04-16T18:25:50;25.08;;;14.65;;
41623;SDS011;27319;50.306;18.926;2023-04-16T18:29:51;21.73;;;14.13;;
41623;SDS011;27319;50.306;18.926;2023-04-16T18:33:52;20.67;;;13.70;;
41623;SDS011;27319;50.306;18.926;2023-04-16T18:37:52;19.58;;;13.38;;
41623;SDS011;27319;50.306;18.926;2023-04-16T18:41:53;18.42;;;13.38;;
41623;SDS011;27319;50.306;18.926;2023-04-16T18:45:54;20.52;;;13.50;;
41623;SDS011;27319;50.306;18.926;2023-04-16T18:49:55;18.33;;;12.82;;
41623;SDS011;27319;50.306;18.926;2023-04-16T18:53:57;22.92;;;13.07;;
41623;SDS011;27319;50.306;18.926;2023-04-16T18:57:58;19.02;;;13.02;;
41623;SDS011;27319;50.306;18.926;2023-04-16T19:01:59;20.83;;;13.10;;
41623;SDS011;27319;50.306;18.926;2023-04-16T19:06:00;29.25;;;16.90;;
41623;SDS011;27319;50.306;18.926;2023-04-16T19:10:01;25.40;;;16.58;;
41623;SDS011;27319;50.306;18.926;2023-04-16T19:13:02;25.17;;;16.92;;
41623;SDS011;27319;50.306;18.926;2023-04-16T19:16:03;25.30;;;15.35;;
41623;SDS011;27319;50.306;18.926;2023-04-16T19:19:10;26.80;;;15.32;;
41623;SDS011;27319;50.306;18.926;2023-04-16T19:22:11;24.42;;;15.85;;
41623;SDS011;27319;50.306;18.926;2023-04-16T19:25:12;24.77;;;18.00;;
41623;SDS011;27319;50.306;18.926;2023-04-16T19:28:13;24.88;;;16.10;;
41623;SDS011;27319;50.306;18.926;2023-04-16T19:31:14;26.48;;;16.60;;
41623;SDS011;27319;50.306;18.926;2023-04-16T19:34:15;26.02;;;16.77;;
41623;SDS011;27319;50.306;18.926;2023-04-16T19:37:16;31.38;;;20.55;;
41623;SDS011;27319;50.306;18.926;2023-04-16T19:40:17;60.95;;;39.58;;
41623;SDS011;27319;50.306;18.926;2023-04-16T19:43:18;60.20;;;38.83;;
41623;SDS011;27319;50.306;18.926;2023-04-16T19:46:19;63.67;;;43.38;;
41623;SDS011;27319;50.306;18.926;2023-04-16T19:49:20;62.30;;;41.90;;
41623;SDS011;27319;50.306;18.926;2023-04-16T19:52:21;64.03;;;39.70;;
41623;SDS011;27319;50.306;18.926;2023-04-16T19:55:22;49.03;;;32.97;;
41623;SDS011;27319;50.306;18.926;2023-04-16T19:58:23;55.58;;;34.47;;
41623;SDS011;27319;50.306;18.926;2023-04-16T20:01:24;43.65;;;28.02;;
41623;SDS011;27319;50.306;18.926;2023-04-16T20:04:25;37.63;;;25.33;;
41623;SDS011;27319;50.306;18.926;2023-04-16T20:07:26;36.67;;;22.83;;
41623;SDS011;27319;50.306;18.926;2023-04-16T20:10:27;38.72;;;23.20;;
41623;SDS011;27319;50.306;18.926;2023-04-16T20:13:30;31.67;;;21.02;;
41623;SDS011;27319;50.306;18.926;2023-04-16T20:16:34;26.70;;;17.88;;
41623;SDS011;27319;50.306;18.926;2023-04-16T20:20:36;30.77;;;17.88;;
41623;SDS011;27319;50.306;18.926;2023-04-16T20:24:39;32.38;;;18.77;;
41623;SDS011;27319;50.306;18.926;2023-04-16T20:28:19;29.23;;;17.77;;
41623;SDS011;27319;50.306;18.926;2023-04-16T20:32:20;30.05;;;18.85;;
41623;SDS011;27319;50.306;18.926;2023-04-16T20:36:21;30.65;;;18.70;;
41623;SDS011;27319;50.306;18.926;2023-04-16T20:40:21;25.35;;;16.02;;
41623;SDS011;27319;50.306;18.926;2023-04-16T20:44:34;27.42;;;16.45;;
41623;SDS011;27319;50.306;18.926;2023-04-16T20:48:35;24.83;;;14.73;;
41623;SDS011;27319;50.306;18.926;2023-04-16T20:52:36;22.77;;;13.90;;
41623;SDS011;27319;50.306;18.926;2023-04-16T20:56:37;29.67;;;16.83;;
41623;SDS011;27319;50.306;18.926;2023-04-16T21:00:37;29.60;;;17.75;;
41623;SDS011;27319;50.306;18.926;2023-04-16T21:03:38;25.83;;;16.52;;
41623;SDS011;27319;50.306;18.926;2023-04-16T21:07:39;29.23;;;18.33;;
41623;SDS011;27319;50.306;18.926;2023-04-16T21:11:40;25.30;;;15.70;;
41623;SDS011;27319;50.306;18.926;2023-04-16T21:15:42;27.50;;;17.10;;
41623;SDS011;27319;50.306;18.926;2023-04-16T21:19:41;25.38;;;15.93;;
41623;SDS011;27319;50.306;18.926;2023-04-16T21:23:43;24.35;;;15.93;;
41623;SDS011;27319;50.306;18.926;2023-04-16T21:27:44;26.70;;;16.52;;
41623;SDS011;27319;50.306;18.926;2023-04-16T21:31:45;28.55;;;16.88;;
41623;SDS011;27319;50.306;18.926;2023-04-16T21:35:49;27.83;;;16.17;;